Monday, August 21, 2017, 7:52 AM EDT
Back to Local

KLBE, Latrobe / Westmorland

Location: Latrobe, PA, United States Lat: 40.283
Local Time: 7:52 AM EDT (11:52 GMT) Lon: -79.4
Time Zone: US/Eastern Elev: 1184 ft

Show me the last for .
Show Coded

Time T Td Feel RH Dir Speed Gust Alt SLP Vis Weather Sky Remarks
2017-08-21 06:45 63 63 - 100 - Calm - 30.20 - 10 SCT049 None
2017-08-21 05:55 63 63 - 100 - Calm - 30.20 - 10 FEW049 BKN055 None
2017-08-21 05:35 63 63 - 100 - Calm - 30.19 - 10 BKN065 BKN080 None
2017-08-21 05:15 63 63 - 100 - Calm - 30.19 - 10 BKN075 None
2017-08-21 04:55 63 63 - 100 - Calm - 30.19 - 10 SCT075 None
2017-08-21 04:35 61 61 - 100 - Calm - 30.18 - 10 CLR None
2017-08-21 04:15 63 63 - 100 - Calm - 30.18 - 10 CLR None
2017-08-21 03:55 61 61 - 100 - Calm - 30.18 - 9 CLR None
2017-08-21 03:35 61 61 - 100 - Calm - 30.18 - 10 CLR None
2017-08-21 03:15 61 61 - 100 - Calm - 30.18 - 10 CLR None
2017-08-21 02:55 61 61 - 100 - Calm - 30.18 - 10 CLR None
2017-08-21 02:35 63 63 - 100 - Calm - 30.18 - 10 CLR None
2017-08-21 02:15 63 63 - 100 - Calm - 30.18 - 10 CLR None
2017-08-21 01:55 63 63 - 100 - Calm - 30.18 - 10 CLR None
2017-08-21 01:35 63 63 - 100 - Calm - 30.18 - 10 CLR None
2017-08-21 01:15 63 63 - 100 - Calm - 30.19 - 10 CLR None
2017-08-21 00:55 63 63 - 100 - - - 30.19 - 10 CLR None
2017-08-21 00:35 63 63 - 100 - Calm - 30.19 - 10 CLR None
2017-08-21 00:15 63 63 - 100 - Calm - 30.19 - 10 CLR None
2017-08-20 23:55 63 63 - 100 - Calm - 30.19 - 10 CLR None
2017-08-20 23:35 64 64 - 100 - Calm - 30.19 - 10 CLR None
2017-08-20 23:15 64 64 - 100 - Calm - 30.19 - 10 CLR None
2017-08-20 22:55 64 64 - 100 - Calm - 30.19 - 10 CLR None
2017-08-20 22:35 64 64 - 100 - Calm - 30.20 - 10 CLR None
2017-08-20 22:15 64 64 - 100 - Calm - 30.19 - 10 CLR None
2017-08-20 21:50 68 64 - 88 - Calm - 30.19 - 10 CLR None
2017-08-20 20:50 72 64 76 78 - Calm - 30.17 - 10 CLR None
2017-08-20 19:50 75 57 78 53 - Calm - 30.15 - 10 CLR None
2017-08-20 18:50 81 57 81 44 290° 6 - 30.13 - 10 CLR None
2017-08-20 17:50 81 57 81 44 270° 6 - 30.14 - 10 CLR None
2017-08-20 16:50 81 59 81 47 280° 6 - 30.14 - 10 CLR None
2017-08-20 15:45 81 59 81 47 - Calm - 30.15 - 10 CLR None
2017-08-20 14:45 79 57 80 47 - Calm - 30.17 - 9 CLR None
2017-08-20 13:45 79 55 79 44 260° 5 - - - 9 CLR None
2017-08-20 12:45 77 55 78 47 - Calm - 30.18 - 9 CLR None
2017-08-20 11:47 75 57 78 53 - Calm - 30.19 - 20 CLR None
2017-08-20 10:47 72 63 76 73 - Calm - 30.17 - 20 CLR None
2017-08-20 09:47 64 64 - 100 - Calm - 30.17 - 20 CLR None
2017-08-20 09:25 61 61 - 100 - Calm - 30.16 - 20 CLR None
2017-08-20 08:47 59 59 - 100 - Calm - 30.16 - 0 FG VV000 None

Support USWX by starting your Amazon purchase here.